Current Weather

Casa Grande Muni

Casa Grande, Arizona (KCGZ)

Report from: Monday, August 15, 2022 4:56 PM MST
Current time: Monday, August 15, 2022 5:24 PM MST

Nearby weather
Weather history
Weather forecast

Temperature36.7°C (98.1°F)
Heat index38.2°C (100.7°F)
Dew point17.8°C (64.0°F)
Winds Calm
Clouds Sky clear
Altimeter29.79 in.Hg (1009 mB)
Relative humidity33 %
Density altitude2,881 ft. (878 m)
Sea-level pressure100.7 kPa (1007 mB, 29.73 in.Hg)
Max temp last 6 hours37.2°C (99.0°F)
Min temp last 6 hours31.7°C (89.1°F)
Remarks Fully automated report
System requires maintenance
Automated weather observing station with precipitation discriminator
Present weather sensor not operating
Pressure falling more slowly
Flight conditions Visual Meteorological Conditions
Raw dataKCGZ 152356Z AUTO 00000KT CLR 37/18 A2979 RMK AO2 SLP069 6//// T03670178 10372 20317 56017 PWINO $
An error has occurred. This application may no longer respond until reloaded. Reload 🗙